Time;durP1;ratioP1;P1;durP2;ratioP2;P2;SDS_P1;SDS_P2;PMS_P1;PMS_P2;Temp;Humidity;BMP_temperature;BMP_pressure;BME280_temperature;BME280_humidity;BME280_pressure;Samples;Min_cycle;Max_cycle;Signal;HPM_P1;HPM_P2
2022/11/10 00:06:32;;;;;;;1.15;0.40;;;;;;;10.18;100.00;98218.00;18554029;32;20045;-64
2022/11/10 00:26:56;;;;;;;1.70;0.70;;;;;;;9.74;100.00;98225.31;18560215;32;20048;-64
2022/11/10 00:36:58;;;;;;;1.70;0.77;;;;;;;9.41;100.00;98244.03;18559801;32;20360;-65
2022/11/10 00:47:01;;;;;;;1.00;0.63;;;;;;;9.23;100.00;98252.41;18560185;32;20085;-60
2022/11/10 00:57:03;;;;;;;1.80;1.20;;;;;;;9.03;100.00;98253.75;18571111;32;20068;-60
2022/11/10 01:07:06;;;;;;;1.60;1.30;;;;;;;9.11;100.00;98264.13;18571309;32;20119;-59
2022/11/10 01:17:08;;;;;;;3.93;1.37;;;;;;;9.20;100.00;98271.81;18570293;32;20449;-60
2022/11/10 01:27:10;;;;;;;2.10;1.30;;;;;;;9.10;100.00;98286.75;18555653;32;20052;-59
2022/11/10 01:37:13;;;;;;;1.97;1.20;;;;;;;9.07;100.00;98298.06;18569338;32;20097;-60
2022/11/10 01:47:15;;;;;;;2.87;1.40;;;;;;;8.95;100.00;98310.78;18365538;32;20069;-60
2022/11/10 01:57:18;;;;;;;2.03;1.20;;;;;;;8.70;100.00;98320.06;18364841;32;20101;-60
2022/11/10 02:07:21;;;;;;;1.60;1.10;;;;;;;8.54;100.00;98323.50;18364136;32;20501;-60
2022/11/10 02:17:23;;;;;;;3.13;1.17;;;;;;;8.26;100.00;98309.78;18396785;32;20065;-60
2022/11/10 02:27:26;;;;;;;3.87;1.10;;;;;;;8.07;100.00;98327.97;18500311;32;20096;-60
2022/11/10 02:37:28;;;;;;;2.80;1.33;;;;;;;7.89;100.00;98344.28;18499683;32;20357;-60
2022/11/10 02:47:31;;;;;;;2.37;1.10;;;;;;;7.73;100.00;98357.41;18500300;32;20068;-60
2022/11/10 02:57:33;;;;;;;1.70;0.90;;;;;;;7.56;100.00;98359.16;18515372;32;20127;-64
2022/11/10 03:07:36;;;;;;;1.30;0.70;;;;;;;7.39;100.00;98370.59;18360824;32;20120;-64
2022/11/10 03:17:38;;;;;;;2.43;1.17;;;;;;;7.23;100.00;98382.03;18346658;32;20429;-64
2022/11/10 03:27:41;;;;;;;3.40;1.17;;;;;;;7.13;100.00;98390.66;18296140;32;20070;-64
2022/11/10 03:37:43;;;;;;;1.50;1.00;;;;;;;7.09;100.00;98403.75;18383431;32;20077;-64
2022/11/10 03:47:47;;;;;;;1.77;0.90;;;;;;;7.04;100.00;98403.59;18422534;32;20098;-64
2022/11/10 03:57:49;;;;;;;3.10;0.90;;;;;;;7.09;100.00;98419.88;18531827;32;20060;-64
2022/11/10 04:18:20;;;;;;;2.45;0.70;;;;;;;7.01;100.00;98454.34;18560813;32;20079;-64
2022/11/10 04:28:22;;;;;;;1.55;0.98;;;;;;;6.97;100.00;98466.59;18569334;32;20096;-63
2022/11/10 04:38:24;;;;;;;1.73;0.57;;;;;;;6.99;100.00;98477.94;18572943;32;20120;-64
2022/11/10 04:48:28;;;;;;;1.60;0.70;;;;;;;6.84;100.00;98464.88;18572063;32;20071;-64
2022/11/10 04:58:30;;;;;;;1.77;0.97;;;;;;;6.71;100.00;98472.06;18572325;32;20060;-64
2022/11/10 05:08:33;;;;;;;3.53;1.20;;;;;;;6.58;100.00;98488.38;18571485;32;20057;-64
2022/11/10 05:18:36;;;;;;;2.13;1.00;;;;;;;6.47;100.00;98513.25;18570537;32;20420;-63
2022/11/10 05:28:40;;;;;;;1.40;0.80;;;;;;;6.33;100.00;98516.09;18570100;32;20045;-64
2022/11/10 05:38:42;;;;;;;2.33;1.00;;;;;;;6.16;100.00;98531.13;18568134;32;20068;-63
2022/11/10 05:48:46;;;;;;;1.23;0.77;;;;;;;6.05;100.00;98546.91;18568891;32;20092;-64
2022/11/10 05:58:48;;;;;;;2.87;1.00;;;;;;;5.97;100.00;98565.12;18553535;32;20388;-64
2022/11/10 06:08:51;;;;;;;1.10;0.97;;;;;;;5.83;100.00;98562.53;18568067;32;20048;-64
2022/11/10 06:18:53;;;;;;;1.43;0.70;;;;;;;5.67;100.00;98584.50;18567111;32;20086;-64
2022/11/10 06:28:56;;;;;;;1.63;0.97;;;;;;;5.57;100.00;98601.09;18559795;32;20049;-64
2022/11/10 06:38:59;;;;;;;2.43;1.30;;;;;;;5.45;100.00;98610.84;18426607;32;20092;-64
2022/11/10 06:49:04;;;;;;;1.83;1.10;;;;;;;5.28;100.00;98619.38;18425934;32;20069;-64
2022/11/10 06:59:09;;;;;;;1.90;1.00;;;;;;;5.20;100.00;98623.09;18425301;32;20061;-64
2022/11/10 07:09:14;;;;;;;1.33;0.63;;;;;;;5.13;100.00;98643.75;18535978;32;20511;-64
2022/11/10 07:19:17;;;;;;;1.42;0.70;;;;;;;5.12;100.00;98657.38;18549398;32;20089;-64
2022/11/10 07:29:21;;;;;;;1.80;0.83;;;;;;;5.20;100.00;98670.56;18562669;32;20425;-64
2022/11/10 07:40:04;;;;;;;1.43;0.80;;;;;;;5.26;100.00;98685.78;18562180;32;20064;-64
2022/11/10 07:50:17;;;;;;;1.37;0.87;;;;;;;5.30;100.00;98710.34;18548483;32;20354;-64
2022/11/10 08:00:27;;;;;;;1.53;1.17;;;;;;;5.50;100.00;98724.50;18560539;32;20092;-64
2022/11/10 08:10:35;;;;;;;2.83;1.30;;;;;;;5.73;100.00;98736.63;18421967;32;20525;-63
2022/11/10 08:20:51;;;;;;;1.43;1.13;;;;;;;5.99;100.00;98746.47;18408248;32;20427;-63
2022/11/10 08:31:32;;;;;;;;;;;;;;;;;;;;;
2022/11/10 08:42:01;;;;;;;;;;;;;;;;;;;;;
2022/11/10 08:52:35;;;;;;;3.97;2.93;;;;;;;7.11;100.00;98788.09;18559098;32;20048;-64
2022/11/10 09:03:10;;;;;;;6.20;4.67;;;;;;;7.60;100.00;98794.47;18558717;32;20041;-64
2022/11/10 09:13:34;;;;;;;7.03;5.20;;;;;;;8.03;100.00;98802.72;18560455;32;20127;-65
2022/11/10 09:23:40;;;;;;;6.80;4.73;;;;;;;8.39;100.00;98819.91;18543288;32;20080;-64
2022/11/10 09:33:48;;;;;;;7.50;5.00;;;;;;;8.65;100.00;98834.94;18569823;32;20372;-64
2022/11/10 09:44:24;;;;;;;8.03;4.37;;;;;;;8.89;100.00;98835.81;18554669;32;20056;-64
2022/11/10 09:56:01;;;;;;;4.77;2.53;;;;;;;9.07;100.00;98853.84;18565921;32;20084;-64
2022/11/10 10:06:19;;;;;;;3.93;1.87;;;;;;;9.21;100.00;98870.63;18175750;32;20077;-64
2022/11/10 10:16:53;;;;;;;4.90;1.93;;;;;;;9.36;100.00;98878.31;18174866;32;20407;-64
2022/11/10 10:27:05;;;;;;;6.60;2.43;;;;;;;9.52;100.00;98882.19;18174086;32;20098;-64
2022/11/10 10:37:42;;;;;;;4.97;2.67;;;;;;;9.64;100.00;98899.22;18426891;32;20079;-64
2022/11/10 10:48:01;;;;;;;5.30;2.40;;;;;;;9.84;100.00;98890.78;18565107;32;20060;-64
2022/11/10 10:58:25;;;;;;;5.90;2.10;;;;;;;10.03;100.00;98893.38;18564405;32;20416;-64
2022/11/10 11:08:57;;;;;;;3.78;1.73;;;;;;;10.10;100.00;98885.94;18550159;32;20071;-65
2022/11/10 11:19:41;;;;;;;2.30;1.50;;;;;;;10.17;100.00;98873.13;18560436;32;20045;-63
2022/11/10 11:30:02;;;;;;;2.30;0.90;;;;;;;10.22;100.00;98868.88;18562654;32;20060;-64
2022/11/10 11:40:28;;;;;;;1.75;0.90;;;;;;;10.30;100.00;98849.59;18561334;32;20098;-64
2022/11/10 11:51:04;;;;;;;2.90;1.00;;;;;;;10.35;100.00;98852.44;18561692;32;20061;-64
2022/11/10 12:02:04;;;;;;;4.45;1.08;;;;;;;10.59;100.00;98852.34;18230667;32;20050;-64
2022/11/10 12:12:41;;;;;;;1.95;0.70;;;;;;;10.95;100.00;98866.53;18230510;32;20073;-64
2022/11/10 12:24:03;;;;;;;9.68;1.30;;;;;;;11.08;100.00;98868.94;18217823;32;20062;-64
2022/11/10 12:34:27;;;;;;;2.42;1.15;;;;;;;11.30;100.00;98860.13;18411334;32;20049;-64
2022/11/10 12:44:42;;;;;;;2.40;1.00;;;;;;;11.58;100.00;98853.81;18562208;32;20057;-64
2022/11/10 12:54:48;;;;;;;6.05;0.90;;;;;;;11.64;100.00;98852.00;18571906;32;20421;-64
2022/11/10 13:05:45;;;;;;;4.00;0.90;;;;;;;11.56;100.00;98850.50;18505291;32;20465;-64
2022/11/10 13:15:57;;;;;;;3.62;1.00;;;;;;;11.50;100.00;98846.09;18240994;32;20551;-64
2022/11/10 13:26:09;;;;;;;4.22;1.20;;;;;;;11.47;100.00;98839.28;18240536;32;20093;-64
2022/11/10 13:36:44;;;;;;;2.92;0.95;;;;;;;11.55;100.00;98837.22;18227216;32;20542;-64
2022/11/10 13:47:08;;;;;;;2.07;1.10;;;;;;;11.56;100.00;98833.44;18471389;32;20490;-64
2022/11/10 13:57:29;;;;;;;3.42;1.25;;;;;;;11.52;100.00;98827.69;18479664;32;20083;-64
2022/11/10 14:07:42;;;;;;;3.65;1.30;;;;;;;11.43;100.00;98835.44;18493763;32;20099;-64
2022/11/10 14:17:51;;;;;;;3.25;0.70;;;;;;;11.38;100.00;98835.34;18495122;32;20119;-64
2022/11/10 14:27:54;;;;;;;1.62;0.90;;;;;;;11.29;100.00;98844.94;18500302;32;20388;-62
2022/11/10 14:38:02;;;;;;;2.25;0.47;;;;;;;11.26;100.00;98857.06;18500788;32;20108;-62
2022/11/10 14:48:17;;;;;;;0.60;0.45;;;;;;;11.23;100.00;98854.84;18500034;32;20053;-62
2022/11/10 14:58:30;;;;;;;2.40;0.60;;;;;;;11.06;100.00;98870.25;18515375;32;20057;-62
2022/11/10 15:08:36;;;;;;;3.05;0.93;;;;;;;10.91;100.00;98877.03;18564125;32;20049;-64
2022/11/10 15:18:41;;;;;;;1.00;0.35;;;;;;;10.73;100.00;98875.38;18563459;32;20066;-64
2022/11/10 15:28:46;;;;;;;1.87;0.62;;;;;;;10.50;100.00;98876.25;18562949;32;20092;-62
2022/11/10 15:39:10;;;;;;;1.77;0.60;;;;;;;10.16;100.00;98884.97;18561815;32;20057;-62
2022/11/10 15:49:35;;;;;;;2.40;0.55;;;;;;;9.78;100.00;98883.59;18561676;32;20493;-64
2022/11/10 15:59:39;;;;;;;1.27;0.55;;;;;;;9.43;100.00;98878.19;18561096;32;20056;-63
2022/11/10 16:09:42;;;;;;;1.63;0.57;;;;;;;9.10;100.00;98906.50;18560836;32;20052;-64
2022/11/10 16:19:45;;;;;;;0.90;0.40;;;;;;;8.73;100.00;98904.72;18546334;32;20068;-64
2022/11/10 16:29:49;;;;;;;2.10;0.80;;;;;;;8.42;100.00;98906.50;18553788;32;20049;-64
2022/11/10 16:39:52;;;;;;;3.07;0.80;;;;;;;8.11;100.00;98927.19;18559770;32;20087;-64
2022/11/10 16:49:55;;;;;;;1.53;1.00;;;;;;;7.80;100.00;98931.59;18532696;32;20379;-64
2022/11/10 16:59:58;;;;;;;3.47;1.20;;;;;;;7.50;100.00;98936.00;18558895;32;20100;-64
2022/11/10 17:10:01;;;;;;;1.67;1.03;;;;;;;7.20;100.00;98936.63;18559352;32;20116;-64
2022/11/10 17:20:06;;;;;;;2.03;1.23;;;;;;;6.94;100.00;98962.63;18558805;32;20076;-64
2022/11/10 17:30:09;;;;;;;1.80;1.40;;;;;;;6.73;100.00;98969.94;18558966;32;20072;-63
2022/11/10 17:40:24;;;;;;;2.13;1.30;;;;;;;6.53;100.00;98982.63;18569630;32;20155;-64
2022/11/10 17:50:26;;;;;;;2.67;1.63;;;;;;;6.35;100.00;98997.56;18569130;32;20099;-64
2022/11/10 18:00:29;;;;;;;4.33;2.53;;;;;;;6.17;100.00;99008.13;18553984;32;20045;-64
2022/11/10 18:10:32;;;;;;;6.37;3.73;;;;;;;6.00;100.00;99018.47;18553923;32;20070;-64
2022/11/10 18:20:35;;;;;;;4.37;2.30;;;;;;;5.85;100.00;99015.94;18561029;32;20481;-64
2022/11/10 18:30:39;;;;;;;3.30;2.00;;;;;;;5.72;100.00;99012.22;18566599;32;20104;-63
2022/11/10 18:40:42;;;;;;;2.43;1.60;;;;;;;5.56;100.00;99023.34;18565827;32;20040;-64
2022/11/10 18:50:44;;;;;;;1.70;1.27;;;;;;;5.46;100.00;99033.66;18565282;32;20053;-64
2022/11/10 19:00:49;;;;;;;1.30;1.03;;;;;;;5.34;100.00;99046.81;18564567;32;20074;-63
2022/11/10 19:10:53;;;;;;;7.57;1.80;;;;;;;5.23;100.00;99048.22;18548636;32;20048;-64
2022/11/10 19:20:56;;;;;;;4.50;2.07;;;;;;;5.14;100.00;99046.75;18559629;32;20444;-63
2022/11/10 19:31:03;;;;;;;2.73;2.13;;;;;;;5.05;100.00;99057.66;18548756;32;20463;-64
2022/11/10 19:41:12;;;;;;;3.07;1.87;;;;;;;4.95;100.00;99069.75;18562244;32;20065;-64
2022/11/10 19:51:17;;;;;;;3.43;2.40;;;;;;;4.83;100.00;99072.19;18561925;32;20064;-64
2022/11/10 20:01:20;;;;;;;;;;;;;;;4.75;100.00;99086.56;18560684;32;20048;-63
2022/11/10 20:11:25;;;;;;;4.13;2.20;;;;;;;4.69;100.00;99098.91;18561424;32;19963;-63
2022/11/10 20:21:27;;;;;;;;;;;;;;;4.68;100.00;99093.75;18561034;32;20060;-64
2022/11/10 20:31:31;;;;;;;11.50;3.50;;;;;;;4.69;100.00;99104.28;18560602;32;20033;-63
2022/11/10 20:41:36;;;;;;;3.40;2.90;;;;;;;4.72;100.00;99090.47;18545663;32;20049;-64
2022/11/10 20:51:39;;;;;;;3.83;2.97;;;;;;;4.75;100.00;99095.47;18560016;32;20057;-64
2022/11/10 21:01:42;;;;;;;3.80;2.80;;;;;;;4.70;100.00;99103.25;18544680;32;20072;-64
2022/11/10 21:22:07;;;;;;;4.30;3.13;;;;;;;4.50;100.00;99111.16;18556550;32;20057;-63
2022/11/10 21:32:09;;;;;;;4.23;3.20;;;;;;;4.40;100.00;99121.38;18570559;32;20045;-64
2022/11/10 21:42:12;;;;;;;3.47;2.47;;;;;;;4.34;100.00;99112.25;18569394;32;20093;-63
2022/11/10 21:52:15;;;;;;;2.93;2.13;;;;;;;4.29;100.00;99101.31;18569178;32;20057;-63
2022/11/10 22:02:18;;;;;;;3.37;2.20;;;;;;;4.12;100.00;99113.31;18568160;32;20120;-64
2022/11/10 22:22:57;;;;;;;3.20;2.30;;;;;;;3.91;100.00;99112.31;18531695;32;20048;-64
2022/11/10 22:33:25;;;;;;;3.42;2.67;;;;;;;3.84;100.00;99111.41;18566762;32;20076;-64
2022/11/10 22:53:49;;;;;;;2.53;2.30;;;;;;;3.80;100.00;99116.31;18565346;32;20056;-64
2022/11/10 23:03:52;;;;;;;3.00;2.50;;;;;;;3.66;100.00;99101.97;18564103;32;20067;-63
2022/11/10 23:13:58;;;;;;;3.83;3.33;;;;;;;3.52;100.00;99092.13;18564156;32;20120;-64
2022/11/10 23:24:01;;;;;;;3.40;2.67;;;;;;;3.42;100.00;99095.13;18563493;32;20102;-63
2022/11/10 23:34:04;;;;;;;3.60;2.67;;;;;;;3.37;100.00;99092.19;18562715;32;20056;-64
2022/11/10 23:44:32;;;;;;;3.73;3.30;;;;;;;3.32;100.00;99098.09;18555584;32;20044;-63
2022/11/10 23:54:41;;;;;;;8.40;4.77;;;;;;;3.28;100.00;99078.09;18562259;32;20072;-64
